Lebanon, NH (03756)

8:49 PM EST on December 02, 2016 (GMT -0500)
Wilder Village | | Change Station

Elev 451 ft 43.68 °N, 72.31 °W | Updated 7 minutes ago

Light Rain
Light Rain
36.3 °F
Feels Like 36 °F
N
0.0
Wind Variable Wind from ENE
Gusts 9.0 mph

Today
High -- | Low -- °F
--% Chance of Precip.
Yesterday
High -- | Low -- °F
Precip. -- in
Pressure 29.71 in
Visibility 4.0 miles
Clouds Scattered Clouds 1400 ft
Mostly Cloudy 2200 ft
Overcast 5000 ft
Windchill 36 °F
Dew Point 33 °F
Humidity 89%
Rainfall 0.02 in
Snow Depth Not available.
7:04 AM 4:12 PM
Waxing Crescent, 11% visible
SPECI KLEB 030140Z 34013G21KT 4SM -RA SCT014 BKN022 OVC050 03/01 A2971 RMK AO2 RAB19 P0000 T00330006
Pressure 29.71 in
Visibility 4.0 miles
Clouds Scattered Clouds 1400 ft
Mostly Cloudy 2200 ft
Overcast 5000 ft
Windchill 36 °F
Dew Point 33 °F
Humidity 89%
Rainfall 0.02 in
Snow Depth Not available.
7:04 AM 4:12 PM
Waxing Crescent, 11% visible
SPECI KLEB 030140Z 34013G21KT 4SM -RA SCT014 BKN022 OVC050 03/01 A2971 RMK AO2 RAB19 P0000 T00330006

10-Day Weather Forecast

Almanac

Astronomy

Dec. 02, 2016 Rise Set
Actual Time
Civil Twilight
Nautical Twilight
Astronomical Twilight
Moon
Length of Visible Light
Length of Day
Tomorrow will be .
, % of the Moon is Illuminated

Today's Extremes

State Highs State Lows

Community

WunderPhotos

Upload Photos

1,955,392 photos uploaded!

WunderBlog® & News

Nearby

Air Quality

  Air Quality AQ Index Pollutant
Not available.

Snow Depth

Station Depth Elevation

Earthquake Activity

City Distance Mag. Time & Date
Minimum magnitude displayed is 2.5.

Coastal Water Temperatures

Place Temperature

Stations

Nearby Weather Stations

Station Location Temp. Windchill Dew Point Humidity Wind Precip. Elev Updated Type
                   

Watches & Warnings

There are currently no watches in effect.